sensor_id;sensor_type;location;lat;lon;timestamp;temperature;humidity
1602;DHT22;794;48.592;9.634;2024-03-17T00:02:16;5.90;1.00
1602;DHT22;794;48.592;9.634;2024-03-17T00:04:42;5.70;1.00
1602;DHT22;794;48.592;9.634;2024-03-17T00:07:11;6.60;1.00
1602;DHT22;794;48.592;9.634;2024-03-17T00:09:37;6.70;1.00
1602;DHT22;794;48.592;9.634;2024-03-17T00:12:04;5.90;1.00
1602;DHT22;794;48.592;9.634;2024-03-17T00:14:30;5.90;1.00
1602;DHT22;794;48.592;9.634;2024-03-17T00:16:57;7.40;1.00
1602;DHT22;794;48.592;9.634;2024-03-17T00:19:23;6.00;1.00
1602;DHT22;794;48.592;9.634;2024-03-17T00:21:51;5.90;1.00
1602;DHT22;794;48.592;9.634;2024-03-17T00:24:20;5.90;1.00
1602;DHT22;794;48.592;9.634;2024-03-17T00:26:47;7.90;1.00
1602;DHT22;794;48.592;9.634;2024-03-17T00:29:14;7.00;1.00
1602;DHT22;794;48.592;9.634;2024-03-17T00:31:40;7.10;1.00
1602;DHT22;794;48.592;9.634;2024-03-17T00:34:07;5.80;1.00
1602;DHT22;794;48.592;9.634;2024-03-17T00:36:33;7.40;1.00
1602;DHT22;794;48.592;9.634;2024-03-17T00:39:00;4.90;1.00
1602;DHT22;794;48.592;9.634;2024-03-17T00:41:27;6.40;1.00
1602;DHT22;794;48.592;9.634;2024-03-17T00:43:54;6.30;1.00
1602;DHT22;794;48.592;9.634;2024-03-17T00:46:20;5.40;1.00
1602;DHT22;794;48.592;9.634;2024-03-17T00:48:48;5.30;1.00
1602;DHT22;794;48.592;9.634;2024-03-17T00:51:14;4.70;1.00
1602;DHT22;794;48.592;9.634;2024-03-17T00:53:41;5.90;1.00
1602;DHT22;794;48.592;9.634;2024-03-17T00:56:15;4.60;1.00
1602;DHT22;794;48.592;9.634;2024-03-17T00:58:49;5.40;1.00
1602;DHT22;794;48.592;9.634;2024-03-17T01:01:17;5.50;1.00
1602;DHT22;794;48.592;9.634;2024-03-17T01:03:44;5.80;1.00
1602;DHT22;794;48.592;9.634;2024-03-17T01:06:10;4.90;1.00
1602;DHT22;794;48.592;9.634;2024-03-17T01:08:37;5.10;1.00
1602;DHT22;794;48.592;9.634;2024-03-17T01:11:04;5.00;1.00
1602;DHT22;794;48.592;9.634;2024-03-17T01:13:34;5.80;1.00
1602;DHT22;794;48.592;9.634;2024-03-17T01:16:03;6.40;1.00
1602;DHT22;794;48.592;9.634;2024-03-17T01:18:29;4.90;1.00
1602;DHT22;794;48.592;9.634;2024-03-17T01:20:56;5.10;1.00
1602;DHT22;794;48.592;9.634;2024-03-17T01:23:22;6.70;1.00
1602;DHT22;794;48.592;9.634;2024-03-17T01:25:49;6.30;1.00
1602;DHT22;794;48.592;9.634;2024-03-17T01:28:15;5.20;1.00
1602;DHT22;794;48.592;9.634;2024-03-17T01:30:42;5.80;1.00
1602;DHT22;794;48.592;9.634;2024-03-17T01:33:09;5.40;1.00
1602;DHT22;794;48.592;9.634;2024-03-17T01:35:37;4.60;1.00
1602;DHT22;794;48.592;9.634;2024-03-17T01:38:03;4.60;1.00
1602;DHT22;794;48.592;9.634;2024-03-17T01:40:30;4.80;1.00
1602;DHT22;794;48.592;9.634;2024-03-17T01:42:56;4.80;1.00
1602;DHT22;794;48.592;9.634;2024-03-17T01:45:28;4.60;1.00
1602;DHT22;794;48.592;9.634;2024-03-17T01:47:55;4.60;1.00
1602;DHT22;794;48.592;9.634;2024-03-17T01:50:26;4.60;1.00
1602;DHT22;794;48.592;9.634;2024-03-17T01:52:56;5.20;1.00
1602;DHT22;794;48.592;9.634;2024-03-17T01:55:25;5.20;1.00
1602;DHT22;794;48.592;9.634;2024-03-17T01:57:53;5.30;1.00
1602;DHT22;794;48.592;9.634;2024-03-17T02:00:20;5.10;1.00
1602;DHT22;794;48.592;9.634;2024-03-17T02:02:46;5.30;1.00
1602;DHT22;794;48.592;9.634;2024-03-17T02:05:14;5.70;1.00
1602;DHT22;794;48.592;9.634;2024-03-17T02:07:41;5.20;1.00
1602;DHT22;794;48.592;9.634;2024-03-17T02:10:08;6.70;1.00
1602;DHT22;794;48.592;9.634;2024-03-17T02:12:35;5.20;1.00
1602;DHT22;794;48.592;9.634;2024-03-17T02:15:02;6.20;1.00
1602;DHT22;794;48.592;9.634;2024-03-17T02:17:31;5.60;1.00
1602;DHT22;794;48.592;9.634;2024-03-17T02:19:58;6.20;1.00
1602;DHT22;794;48.592;9.634;2024-03-17T02:22:26;7.60;1.00
1602;DHT22;794;48.592;9.634;2024-03-17T02:24:53;7.30;1.00
1602;DHT22;794;48.592;9.634;2024-03-17T02:27:20;5.50;1.00
1602;DHT22;794;48.592;9.634;2024-03-17T02:29:46;5.20;1.00
1602;DHT22;794;48.592;9.634;2024-03-17T02:32:13;5.80;1.00
1602;DHT22;794;48.592;9.634;2024-03-17T02:34:39;6.70;1.00
1602;DHT22;794;48.592;9.634;2024-03-17T02:37:06;7.50;1.00
1602;DHT22;794;48.592;9.634;2024-03-17T02:39:34;6.20;1.00
1602;DHT22;794;48.592;9.634;2024-03-17T02:42:02;5.10;1.00
1602;DHT22;794;48.592;9.634;2024-03-17T02:44:29;5.90;1.00
1602;DHT22;794;48.592;9.634;2024-03-17T02:46:56;6.10;1.00
1602;DHT22;794;48.592;9.634;2024-03-17T02:49:23;5.50;1.00
1602;DHT22;794;48.592;9.634;2024-03-17T02:51:50;5.30;1.00
1602;DHT22;794;48.592;9.634;2024-03-17T02:54:17;5.50;1.00
1602;DHT22;794;48.592;9.634;2024-03-17T02:56:45;5.40;1.00
1602;DHT22;794;48.592;9.634;2024-03-17T02:59:12;6.60;1.00
1602;DHT22;794;48.592;9.634;2024-03-17T03:01:39;6.70;1.00
1602;DHT22;794;48.592;9.634;2024-03-17T03:04:06;6.50;1.00
1602;DHT22;794;48.592;9.634;2024-03-17T03:06:33;7.80;1.00
1602;DHT22;794;48.592;9.634;2024-03-17T03:09:00;5.70;1.00
1602;DHT22;794;48.592;9.634;2024-03-17T03:11:28;5.40;1.00
1602;DHT22;794;48.592;9.634;2024-03-17T03:13:56;5.70;1.00
1602;DHT22;794;48.592;9.634;2024-03-17T03:16:23;5.50;1.00
1602;DHT22;794;48.592;9.634;2024-03-17T03:18:50;5.50;1.00
1602;DHT22;794;48.592;9.634;2024-03-17T03:21:17;5.60;1.00
1602;DHT22;794;48.592;9.634;2024-03-17T03:23:45;5.40;1.00
1602;DHT22;794;48.592;9.634;2024-03-17T03:26:12;5.40;1.00
1602;DHT22;794;48.592;9.634;2024-03-17T03:28:39;7.10;1.00
1602;DHT22;794;48.592;9.634;2024-03-17T03:31:10;7.30;1.00
1602;DHT22;794;48.592;9.634;2024-03-17T03:33:39;7.80;1.00
1602;DHT22;794;48.592;9.634;2024-03-17T03:36:10;6.10;1.00
1602;DHT22;794;48.592;9.634;2024-03-17T03:38:37;5.40;1.00
1602;DHT22;794;48.592;9.634;2024-03-17T03:41:08;5.70;1.00
1602;DHT22;794;48.592;9.634;2024-03-17T03:43:35;5.50;1.00
1602;DHT22;794;48.592;9.634;2024-03-17T03:46:02;4.30;1.00
1602;DHT22;794;48.592;9.634;2024-03-17T03:48:31;5.60;1.00
1602;DHT22;794;48.592;9.634;2024-03-17T03:51:02;7.30;1.00
1602;DHT22;794;48.592;9.634;2024-03-17T03:53:30;5.90;1.00
1602;DHT22;794;48.592;9.634;2024-03-17T03:55:57;6.10;1.00
1602;DHT22;794;48.592;9.634;2024-03-17T03:58:24;7.70;1.00
1602;DHT22;794;48.592;9.634;2024-03-17T04:00:51;6.90;1.00
1602;DHT22;794;48.592;9.634;2024-03-17T04:03:18;7.20;1.00
1602;DHT22;794;48.592;9.634;2024-03-17T04:05:46;7.20;1.00
1602;DHT22;794;48.592;9.634;2024-03-17T04:08:13;7.10;1.00
1602;DHT22;794;48.592;9.634;2024-03-17T04:10:40;5.90;1.00
1602;DHT22;794;48.592;9.634;2024-03-17T04:13:10;5.90;1.00
1602;DHT22;794;48.592;9.634;2024-03-17T04:15:37;7.50;1.00
1602;DHT22;794;48.592;9.634;2024-03-17T04:18:04;7.50;1.00
1602;DHT22;794;48.592;9.634;2024-03-17T04:20:31;5.60;1.00
1602;DHT22;794;48.592;9.634;2024-03-17T04:22:59;5.70;1.00
1602;DHT22;794;48.592;9.634;2024-03-17T04:25:26;6.40;1.00
1602;DHT22;794;48.592;9.634;2024-03-17T04:27:53;6.10;1.00
1602;DHT22;794;48.592;9.634;2024-03-17T04:30:20;6.70;1.00
1602;DHT22;794;48.592;9.634;2024-03-17T04:32:47;6.20;1.00
1602;DHT22;794;48.592;9.634;2024-03-17T04:35:14;6.00;1.00
1602;DHT22;794;48.592;9.634;2024-03-17T04:37:42;6.30;1.00
1602;DHT22;794;48.592;9.634;2024-03-17T04:40:11;7.00;1.00
1602;DHT22;794;48.592;9.634;2024-03-17T04:42:38;6.30;1.00
1602;DHT22;794;48.592;9.634;2024-03-17T04:45:07;6.20;1.00
1602;DHT22;794;48.592;9.634;2024-03-17T04:47:35;6.10;1.00
1602;DHT22;794;48.592;9.634;2024-03-17T04:50:03;6.20;1.00
1602;DHT22;794;48.592;9.634;2024-03-17T04:52:30;6.20;1.00
1602;DHT22;794;48.592;9.634;2024-03-17T04:54:57;6.40;1.00
1602;DHT22;794;48.592;9.634;2024-03-17T04:57:26;6.50;1.00
1602;DHT22;794;48.592;9.634;2024-03-17T04:59:53;6.20;1.00
1602;DHT22;794;48.592;9.634;2024-03-17T05:02:20;6.70;1.00
1602;DHT22;794;48.592;9.634;2024-03-17T05:04:48;6.10;1.00
1602;DHT22;794;48.592;9.634;2024-03-17T05:07:15;6.40;1.00
1602;DHT22;794;48.592;9.634;2024-03-17T05:09:42;6.80;1.00
1602;DHT22;794;48.592;9.634;2024-03-17T05:12:10;6.10;1.00
1602;DHT22;794;48.592;9.634;2024-03-17T05:14:39;6.30;1.00
1602;DHT22;794;48.592;9.634;2024-03-17T05:17:06;7.10;1.00
1602;DHT22;794;48.592;9.634;2024-03-17T05:19:34;6.30;1.00
1602;DHT22;794;48.592;9.634;2024-03-17T05:22:01;6.40;1.00
1602;DHT22;794;48.592;9.634;2024-03-17T05:24:28;6.40;1.00
1602;DHT22;794;48.592;9.634;2024-03-17T05:26:54;7.10;1.00
1602;DHT22;794;48.592;9.634;2024-03-17T05:29:21;6.60;1.00
1602;DHT22;794;48.592;9.634;2024-03-17T05:31:50;6.40;1.00
1602;DHT22;794;48.592;9.634;2024-03-17T05:34:17;6.10;1.00
1602;DHT22;794;48.592;9.634;2024-03-17T05:36:44;6.30;1.00
1602;DHT22;794;48.592;9.634;2024-03-17T05:39:12;6.00;1.00
1602;DHT22;794;48.592;9.634;2024-03-17T05:41:39;6.60;1.00
1602;DHT22;794;48.592;9.634;2024-03-17T05:44:06;6.40;1.00
1602;DHT22;794;48.592;9.634;2024-03-17T05:46:33;7.70;1.00
1602;DHT22;794;48.592;9.634;2024-03-17T05:49:02;8.00;1.00
1602;DHT22;794;48.592;9.634;2024-03-17T05:51:29;6.20;1.00
1602;DHT22;794;48.592;9.634;2024-03-17T05:53:56;6.20;1.00
1602;DHT22;794;48.592;9.634;2024-03-17T05:56:24;5.10;1.00
1602;DHT22;794;48.592;9.634;2024-03-17T05:58:51;6.50;1.00
1602;DHT22;794;48.592;9.634;2024-03-17T06:01:18;7.10;1.00
1602;DHT22;794;48.592;9.634;2024-03-17T06:03:46;6.70;1.00
1602;DHT22;794;48.592;9.634;2024-03-17T06:06:15;6.70;1.00
1602;DHT22;794;48.592;9.634;2024-03-17T06:08:42;6.90;1.00
1602;DHT22;794;48.592;9.634;2024-03-17T06:11:09;6.70;1.00
1602;DHT22;794;48.592;9.634;2024-03-17T06:13:37;6.70;1.00
1602;DHT22;794;48.592;9.634;2024-03-17T06:16:04;6.60;1.00
1602;DHT22;794;48.592;9.634;2024-03-17T06:18:32;6.70;1.00
1602;DHT22;794;48.592;9.634;2024-03-17T06:20:59;6.80;1.00
1602;DHT22;794;48.592;9.634;2024-03-17T06:23:27;7.30;1.00
1602;DHT22;794;48.592;9.634;2024-03-17T06:25:54;7.30;1.00
1602;DHT22;794;48.592;9.634;2024-03-17T06:28:22;8.00;1.00
1602;DHT22;794;48.592;9.634;2024-03-17T06:30:56;8.20;1.00
1602;DHT22;794;48.592;9.634;2024-03-17T06:33:25;7.80;1.00
1602;DHT22;794;48.592;9.634;2024-03-17T06:35:53;8.20;1.00
1602;DHT22;794;48.592;9.634;2024-03-17T06:38:20;7.80;1.00
1602;DHT22;794;48.592;9.634;2024-03-17T06:40:52;7.80;1.00
1602;DHT22;794;48.592;9.634;2024-03-17T06:43:19;9.00;1.00
1602;DHT22;794;48.592;9.634;2024-03-17T06:45:56;8.20;1.00
1602;DHT22;794;48.592;9.634;2024-03-17T06:48:24;9.00;1.00
1602;DHT22;794;48.592;9.634;2024-03-17T06:50:51;8.30;1.00
1602;DHT22;794;48.592;9.634;2024-03-17T06:53:20;8.20;1.00
1602;DHT22;794;48.592;9.634;2024-03-17T06:55:54;8.00;1.00
1602;DHT22;794;48.592;9.634;2024-03-17T06:58:21;8.20;1.00
1602;DHT22;794;48.592;9.634;2024-03-17T07:00:56;8.40;1.00
1602;DHT22;794;48.592;9.634;2024-03-17T07:03:24;8.30;1.00
1602;DHT22;794;48.592;9.634;2024-03-17T07:05:53;8.40;1.00
1602;DHT22;794;48.592;9.634;2024-03-17T07:08:20;8.90;1.00
1602;DHT22;794;48.592;9.634;2024-03-17T07:11:02;8.80;1.00
1602;DHT22;794;48.592;9.634;2024-03-17T07:13:31;8.90;1.00
1602;DHT22;794;48.592;9.634;2024-03-17T07:15:59;9.00;1.00
1602;DHT22;794;48.592;9.634;2024-03-17T07:18:27;8.90;1.00
1602;DHT22;794;48.592;9.634;2024-03-17T07:20:56;9.10;1.00
1602;DHT22;794;48.592;9.634;2024-03-17T07:23:24;9.70;1.00
1602;DHT22;794;48.592;9.634;2024-03-17T07:25:55;9.50;1.00
1602;DHT22;794;48.592;9.634;2024-03-17T07:28:24;10.10;1.00
1602;DHT22;794;48.592;9.634;2024-03-17T07:30:52;10.00;1.00
1602;DHT22;794;48.592;9.634;2024-03-17T07:33:20;10.30;1.00
1602;DHT22;794;48.592;9.634;2024-03-17T07:35:50;8.90;1.00
1602;DHT22;794;48.592;9.634;2024-03-17T07:38:18;10.50;1.00
1602;DHT22;794;48.592;9.634;2024-03-17T07:40:55;9.90;1.00
1602;DHT22;794;48.592;9.634;2024-03-17T07:43:24;9.80;1.00
1602;DHT22;794;48.592;9.634;2024-03-17T07:45:58;9.70;1.00
1602;DHT22;794;48.592;9.634;2024-03-17T07:48:26;10.30;1.00
1602;DHT22;794;48.592;9.634;2024-03-17T07:50:56;10.70;1.00
1602;DHT22;794;48.592;9.634;2024-03-17T07:53:23;11.20;1.00
1602;DHT22;794;48.592;9.634;2024-03-17T07:55:59;11.70;1.00
1602;DHT22;794;48.592;9.634;2024-03-17T07:58:27;12.00;1.00
1602;DHT22;794;48.592;9.634;2024-03-17T08:00:57;13.10;1.00
1602;DHT22;794;48.592;9.634;2024-03-17T08:03:26;13.90;1.00
1602;DHT22;794;48.592;9.634;2024-03-17T08:05:53;14.70;1.00
1602;DHT22;794;48.592;9.634;2024-03-17T08:08:20;14.80;1.00
1602;DHT22;794;48.592;9.634;2024-03-17T08:10:47;14.10;1.00
1602;DHT22;794;48.592;9.634;2024-03-17T08:13:14;14.40;1.00
1602;DHT22;794;48.592;9.634;2024-03-17T08:15:44;13.60;1.00
1602;DHT22;794;48.592;9.634;2024-03-17T08:18:11;13.30;1.00
1602;DHT22;794;48.592;9.634;2024-03-17T08:20:38;12.60;1.00
1602;DHT22;794;48.592;9.634;2024-03-17T08:23:06;12.70;1.00
1602;DHT22;794;48.592;9.634;2024-03-17T08:25:33;12.40;1.00
1602;DHT22;794;48.592;9.634;2024-03-17T08:28:00;12.70;1.00
1602;DHT22;794;48.592;9.634;2024-03-17T08:30:27;12.60;1.00
1602;DHT22;794;48.592;9.634;2024-03-17T08:32:55;13.00;1.00
1602;DHT22;794;48.592;9.634;2024-03-17T08:35:22;12.60;1.00
1602;DHT22;794;48.592;9.634;2024-03-17T08:37:49;12.80;1.00
1602;DHT22;794;48.592;9.634;2024-03-17T08:40:19;13.60;1.00
1602;DHT22;794;48.592;9.634;2024-03-17T08:42:46;14.30;1.00
1602;DHT22;794;48.592;9.634;2024-03-17T08:45:13;14.30;1.00
1602;DHT22;794;48.592;9.634;2024-03-17T08:47:41;14.20;1.00
1602;DHT22;794;48.592;9.634;2024-03-17T08:50:10;13.70;1.00
1602;DHT22;794;48.592;9.634;2024-03-17T08:52:38;13.60;1.00
1602;DHT22;794;48.592;9.634;2024-03-17T08:55:05;13.20;1.00
1602;DHT22;794;48.592;9.634;2024-03-17T08:57:35;13.20;1.00
1602;DHT22;794;48.592;9.634;2024-03-17T09:00:01;13.10;1.00
1602;DHT22;794;48.592;9.634;2024-03-17T09:02:28;12.80;1.00
1602;DHT22;794;48.592;9.634;2024-03-17T09:04:55;12.70;1.00
1602;DHT22;794;48.592;9.634;2024-03-17T09:07:23;12.70;1.00
1602;DHT22;794;48.592;9.634;2024-03-17T09:09:50;13.30;1.00
1602;DHT22;794;48.592;9.634;2024-03-17T09:12:17;12.80;1.00
1602;DHT22;794;48.592;9.634;2024-03-17T09:14:47;12.70;1.00
1602;DHT22;794;48.592;9.634;2024-03-17T09:17:14;12.90;1.00
1602;DHT22;794;48.592;9.634;2024-03-17T09:19:40;13.30;1.00
1602;DHT22;794;48.592;9.634;2024-03-17T09:22:07;13.40;1.00
1602;DHT22;794;48.592;9.634;2024-03-17T09:24:36;13.60;1.00
1602;DHT22;794;48.592;9.634;2024-03-17T09:27:03;13.60;1.00
1602;DHT22;794;48.592;9.634;2024-03-17T09:29:30;13.10;1.00
1602;DHT22;794;48.592;9.634;2024-03-17T09:31:58;12.90;1.00
1602;DHT22;794;48.592;9.634;2024-03-17T09:34:25;13.40;1.00
1602;DHT22;794;48.592;9.634;2024-03-17T09:36:52;13.30;1.00
1602;DHT22;794;48.592;9.634;2024-03-17T09:39:19;13.30;1.00
1602;DHT22;794;48.592;9.634;2024-03-17T09:41:48;13.60;1.00
1602;DHT22;794;48.592;9.634;2024-03-17T09:44:16;13.80;1.00
1602;DHT22;794;48.592;9.634;2024-03-17T09:46:44;14.10;1.00
1602;DHT22;794;48.592;9.634;2024-03-17T09:49:15;14.00;1.00
1602;DHT22;794;48.592;9.634;2024-03-17T09:51:42;14.10;1.00
1602;DHT22;794;48.592;9.634;2024-03-17T09:54:19;13.90;1.00
1602;DHT22;794;48.592;9.634;2024-03-17T09:56:47;14.00;1.00
1602;DHT22;794;48.592;9.634;2024-03-17T09:59:14;14.30;1.00
1602;DHT22;794;48.592;9.634;2024-03-17T10:01:41;13.70;1.00
1602;DHT22;794;48.592;9.634;2024-03-17T10:04:11;13.40;1.00
1602;DHT22;794;48.592;9.634;2024-03-17T10:06:45;13.80;1.00
1602;DHT22;794;48.592;9.634;2024-03-17T10:09:16;13.50;1.00
1602;DHT22;794;48.592;9.634;2024-03-17T10:11:48;13.40;1.00
1602;DHT22;794;48.592;9.634;2024-03-17T10:14:17;13.60;1.00
1602;DHT22;794;48.592;9.634;2024-03-17T10:16:43;13.80;1.00
1602;DHT22;794;48.592;9.634;2024-03-17T10:19:13;13.60;1.00
1602;DHT22;794;48.592;9.634;2024-03-17T10:21:41;13.60;1.00
1602;DHT22;794;48.592;9.634;2024-03-17T10:24:09;13.40;1.00
1602;DHT22;794;48.592;9.634;2024-03-17T10:26:43;13.60;1.00
1602;DHT22;794;48.592;9.634;2024-03-17T10:29:24;13.50;1.00
1602;DHT22;794;48.592;9.634;2024-03-17T10:31:52;13.60;1.00
1602;DHT22;794;48.592;9.634;2024-03-17T10:34:20;13.70;1.00
1602;DHT22;794;48.592;9.634;2024-03-17T10:36:50;13.90;1.00
1602;DHT22;794;48.592;9.634;2024-03-17T10:39:24;13.80;1.00
1602;DHT22;794;48.592;9.634;2024-03-17T10:41:59;13.70;1.00
1602;DHT22;794;48.592;9.634;2024-03-17T10:44:28;14.20;1.00
1602;DHT22;794;48.592;9.634;2024-03-17T10:46:56;14.70;1.00
1602;DHT22;794;48.592;9.634;2024-03-17T10:49:27;14.80;1.00
1602;DHT22;794;48.592;9.634;2024-03-17T10:51:57;14.90;1.00
1602;DHT22;794;48.592;9.634;2024-03-17T10:54:25;14.90;1.00
1602;DHT22;794;48.592;9.634;2024-03-17T10:56:54;14.90;1.00
1602;DHT22;794;48.592;9.634;2024-03-17T10:59:28;14.70;1.00
1602;DHT22;794;48.592;9.634;2024-03-17T11:01:57;14.50;1.00
1602;DHT22;794;48.592;9.634;2024-03-17T11:04:26;14.80;1.00
1602;DHT22;794;48.592;9.634;2024-03-17T11:06:54;14.70;1.00
1602;DHT22;794;48.592;9.634;2024-03-17T11:09:24;14.60;1.00
1602;DHT22;794;48.592;9.634;2024-03-17T11:11:51;14.40;1.00
1602;DHT22;794;48.592;9.634;2024-03-17T11:14:19;14.20;1.00
1602;DHT22;794;48.592;9.634;2024-03-17T11:16:49;14.30;1.00
1602;DHT22;794;48.592;9.634;2024-03-17T11:19:16;14.10;1.00
1602;DHT22;794;48.592;9.634;2024-03-17T11:21:43;14.00;1.00
1602;DHT22;794;48.592;9.634;2024-03-17T11:24:19;13.80;1.00
1602;DHT22;794;48.592;9.634;2024-03-17T11:26:47;13.80;1.00
1602;DHT22;794;48.592;9.634;2024-03-17T11:29:27;14.00;1.00
1602;DHT22;794;48.592;9.634;2024-03-17T11:31:56;14.30;1.00
1602;DHT22;794;48.592;9.634;2024-03-17T11:34:31;14.70;1.00
1602;DHT22;794;48.592;9.634;2024-03-17T11:36:57;14.50;1.00
1602;DHT22;794;48.592;9.634;2024-03-17T11:39:49;14.60;1.00
1602;DHT22;794;48.592;9.634;2024-03-17T11:42:18;14.50;1.00
1602;DHT22;794;48.592;9.634;2024-03-17T11:44:56;14.50;1.00
1602;DHT22;794;48.592;9.634;2024-03-17T11:47:33;14.70;1.00
1602;DHT22;794;48.592;9.634;2024-03-17T11:50:03;15.00;1.00
1602;DHT22;794;48.592;9.634;2024-03-17T11:52:29;15.10;1.00
1602;DHT22;794;48.592;9.634;2024-03-17T11:54:56;15.20;1.00
1602;DHT22;794;48.592;9.634;2024-03-17T11:57:23;15.10;1.00
1602;DHT22;794;48.592;9.634;2024-03-17T11:59:51;15.20;1.00
1602;DHT22;794;48.592;9.634;2024-03-17T12:02:20;15.50;1.00
1602;DHT22;794;48.592;9.634;2024-03-17T12:04:49;15.40;1.00
1602;DHT22;794;48.592;9.634;2024-03-17T12:07:17;15.30;1.00
1602;DHT22;794;48.592;9.634;2024-03-17T12:09:44;15.10;1.00
1602;DHT22;794;48.592;9.634;2024-03-17T12:12:16;15.30;1.00
1602;DHT22;794;48.592;9.634;2024-03-17T12:14:43;15.50;1.00
1602;DHT22;794;48.592;9.634;2024-03-17T12:17:10;15.80;1.00
1602;DHT22;794;48.592;9.634;2024-03-17T12:19:37;16.00;1.00
1602;DHT22;794;48.592;9.634;2024-03-17T12:22:06;16.20;1.00
1602;DHT22;794;48.592;9.634;2024-03-17T12:24:33;16.20;1.00
1602;DHT22;794;48.592;9.634;2024-03-17T12:27:01;16.10;1.00
1602;DHT22;794;48.592;9.634;2024-03-17T12:29:29;16.20;1.00
1602;DHT22;794;48.592;9.634;2024-03-17T12:31:59;16.20;1.00
1602;DHT22;794;48.592;9.634;2024-03-17T12:34:28;15.90;1.00
1602;DHT22;794;48.592;9.634;2024-03-17T12:36:57;15.60;1.00
1602;DHT22;794;48.592;9.634;2024-03-17T12:39:25;15.50;1.00
1602;DHT22;794;48.592;9.634;2024-03-17T12:42:03;15.50;1.00
1602;DHT22;794;48.592;9.634;2024-03-17T12:44:29;15.70;1.00
1602;DHT22;794;48.592;9.634;2024-03-17T12:46:57;15.70;1.00
1602;DHT22;794;48.592;9.634;2024-03-17T12:49:23;15.60;1.00
1602;DHT22;794;48.592;9.634;2024-03-17T12:51:53;15.60;1.00
1602;DHT22;794;48.592;9.634;2024-03-17T12:54:21;15.60;1.00
1602;DHT22;794;48.592;9.634;2024-03-17T12:56:52;15.70;1.00
1602;DHT22;794;48.592;9.634;2024-03-17T12:59:38;15.80;1.00
1602;DHT22;794;48.592;9.634;2024-03-17T13:02:22;15.50;1.00
1602;DHT22;794;48.592;9.634;2024-03-17T13:05:14;14.80;1.00
1602;DHT22;794;48.592;9.634;2024-03-17T13:07:42;14.70;1.00
1602;DHT22;794;48.592;9.634;2024-03-17T13:10:12;14.90;1.00
1602;DHT22;794;48.592;9.634;2024-03-17T13:12:41;15.00;1.00
1602;DHT22;794;48.592;9.634;2024-03-17T13:15:10;15.00;1.00
1602;DHT22;794;48.592;9.634;2024-03-17T13:17:38;15.10;1.00
1602;DHT22;794;48.592;9.634;2024-03-17T13:20:06;14.00;1.00
1602;DHT22;794;48.592;9.634;2024-03-17T13:22:38;15.60;1.00
1602;DHT22;794;48.592;9.634;2024-03-17T13:25:08;15.60;1.00
1602;DHT22;794;48.592;9.634;2024-03-17T13:27:37;15.50;1.00
1602;DHT22;794;48.592;9.634;2024-03-17T13:30:06;15.30;1.00
1602;DHT22;794;48.592;9.634;2024-03-17T13:32:34;15.50;1.00
1602;DHT22;794;48.592;9.634;2024-03-17T13:35:02;15.40;1.00
1602;DHT22;794;48.592;9.634;2024-03-17T13:37:29;15.30;1.00
1602;DHT22;794;48.592;9.634;2024-03-17T13:39:56;15.30;1.00
1602;DHT22;794;48.592;9.634;2024-03-17T13:42:23;15.20;1.00
1602;DHT22;794;48.592;9.634;2024-03-17T13:44:50;14.80;1.00
1602;DHT22;794;48.592;9.634;2024-03-17T13:47:19;14.70;1.00
1602;DHT22;794;48.592;9.634;2024-03-17T13:49:46;14.70;1.00
1602;DHT22;794;48.592;9.634;2024-03-17T13:52:13;14.50;1.00
1602;DHT22;794;48.592;9.634;2024-03-17T13:54:40;14.60;1.00
1602;DHT22;794;48.592;9.634;2024-03-17T13:57:06;14.60;1.00
1602;DHT22;794;48.592;9.634;2024-03-17T13:59:33;15.00;1.00
1602;DHT22;794;48.592;9.634;2024-03-17T14:01:59;15.00;1.00
1602;DHT22;794;48.592;9.634;2024-03-17T14:04:29;15.00;1.00
1602;DHT22;794;48.592;9.634;2024-03-17T14:06:56;15.10;1.00
1602;DHT22;794;48.592;9.634;2024-03-17T14:09:23;15.00;1.00
1602;DHT22;794;48.592;9.634;2024-03-17T14:11:50;14.70;1.00
1602;DHT22;794;48.592;9.634;2024-03-17T14:14:18;14.60;1.00
1602;DHT22;794;48.592;9.634;2024-03-17T14:16:45;14.60;1.00
1602;DHT22;794;48.592;9.634;2024-03-17T14:19:12;14.60;1.00
1602;DHT22;794;48.592;9.634;2024-03-17T14:21:40;14.60;1.00
1602;DHT22;794;48.592;9.634;2024-03-17T14:24:07;14.90;1.00
1602;DHT22;794;48.592;9.634;2024-03-17T14:26:36;14.90;1.00
1602;DHT22;794;48.592;9.634;2024-03-17T14:29:03;15.00;1.00
1602;DHT22;794;48.592;9.634;2024-03-17T14:31:33;14.90;1.00
1602;DHT22;794;48.592;9.634;2024-03-17T14:34:02;14.90;1.00
1602;DHT22;794;48.592;9.634;2024-03-17T14:36:30;14.70;1.00
1602;DHT22;794;48.592;9.634;2024-03-17T14:39:00;14.40;1.00
1602;DHT22;794;48.592;9.634;2024-03-17T14:41:30;14.60;1.00
1602;DHT22;794;48.592;9.634;2024-03-17T14:43:57;14.80;1.00
1602;DHT22;794;48.592;9.634;2024-03-17T14:46:24;14.80;1.00
1602;DHT22;794;48.592;9.634;2024-03-17T14:48:53;14.70;1.00
1602;DHT22;794;48.592;9.634;2024-03-17T14:51:20;14.60;1.00
1602;DHT22;794;48.592;9.634;2024-03-17T14:53:48;14.90;1.00
1602;DHT22;794;48.592;9.634;2024-03-17T14:56:19;15.00;1.00
1602;DHT22;794;48.592;9.634;2024-03-17T14:58:47;15.40;1.00
1602;DHT22;794;48.592;9.634;2024-03-17T15:01:14;15.40;1.00
1602;DHT22;794;48.592;9.634;2024-03-17T15:03:41;15.40;1.00
1602;DHT22;794;48.592;9.634;2024-03-17T15:06:11;15.30;1.00
1602;DHT22;794;48.592;9.634;2024-03-17T15:08:38;15.30;1.00
1602;DHT22;794;48.592;9.634;2024-03-17T15:11:05;15.40;1.00
1602;DHT22;794;48.592;9.634;2024-03-17T15:13:35;15.50;1.00
1602;DHT22;794;48.592;9.634;2024-03-17T15:16:02;15.40;1.00
1602;DHT22;794;48.592;9.634;2024-03-17T15:18:31;15.30;1.00
1602;DHT22;794;48.592;9.634;2024-03-17T15:20:59;15.00;1.00
1602;DHT22;794;48.592;9.634;2024-03-17T15:23:27;15.00;1.00
1602;DHT22;794;48.592;9.634;2024-03-17T15:26:01;15.00;1.00
1602;DHT22;794;48.592;9.634;2024-03-17T15:28:35;15.10;1.00
1602;DHT22;794;48.592;9.634;2024-03-17T15:31:04;15.00;1.00
1602;DHT22;794;48.592;9.634;2024-03-17T15:33:31;14.80;1.00
1602;DHT22;794;48.592;9.634;2024-03-17T15:36:01;14.70;1.00
1602;DHT22;794;48.592;9.634;2024-03-17T15:38:29;14.30;1.00
1602;DHT22;794;48.592;9.634;2024-03-17T15:40:57;14.40;1.00
1602;DHT22;794;48.592;9.634;2024-03-17T15:43:24;14.20;1.00
1602;DHT22;794;48.592;9.634;2024-03-17T15:45:54;13.50;1.00
1602;DHT22;794;48.592;9.634;2024-03-17T15:48:21;14.00;1.00
1602;DHT22;794;48.592;9.634;2024-03-17T15:50:54;13.60;1.00
1602;DHT22;794;48.592;9.634;2024-03-17T15:53:22;14.00;1.00
1602;DHT22;794;48.592;9.634;2024-03-17T15:55:53;13.90;1.00
1602;DHT22;794;48.592;9.634;2024-03-17T15:58:22;14.00;1.00
1602;DHT22;794;48.592;9.634;2024-03-17T16:00:49;13.90;1.00
1602;DHT22;794;48.592;9.634;2024-03-17T16:03:17;13.70;1.00
1602;DHT22;794;48.592;9.634;2024-03-17T16:05:46;13.50;1.00
1602;DHT22;794;48.592;9.634;2024-03-17T16:08:14;13.80;1.00
1602;DHT22;794;48.592;9.634;2024-03-17T16:10:42;13.40;1.00
1602;DHT22;794;48.592;9.634;2024-03-17T16:13:13;13.30;1.00
1602;DHT22;794;48.592;9.634;2024-03-17T16:15:41;14.60;1.00
1602;DHT22;794;48.592;9.634;2024-03-17T16:18:09;13.00;1.00
1602;DHT22;794;48.592;9.634;2024-03-17T16:20:56;13.30;1.00
1602;DHT22;794;48.592;9.634;2024-03-17T16:23:24;13.10;1.00
1602;DHT22;794;48.592;9.634;2024-03-17T16:25:51;13.00;1.00
1602;DHT22;794;48.592;9.634;2024-03-17T16:28:24;13.00;1.00
1602;DHT22;794;48.592;9.634;2024-03-17T16:30:52;13.00;1.00
1602;DHT22;794;48.592;9.634;2024-03-17T16:33:20;12.70;1.00
1602;DHT22;794;48.592;9.634;2024-03-17T16:35:49;12.90;1.00
1602;DHT22;794;48.592;9.634;2024-03-17T16:38:17;12.30;1.00
1602;DHT22;794;48.592;9.634;2024-03-17T16:40:43;12.30;1.00
1602;DHT22;794;48.592;9.634;2024-03-17T16:43:15;12.40;1.00
1602;DHT22;794;48.592;9.634;2024-03-17T16:45:52;12.20;1.00
1602;DHT22;794;48.592;9.634;2024-03-17T16:48:25;11.90;1.00
1602;DHT22;794;48.592;9.634;2024-03-17T16:50:53;12.30;1.00